Glendale, MA (01229)

2:20 AM EST on February 11, 2016 (GMT -0500)
Devon Rd, Lee | | Change Station
CLOSE
Current Station
Personal Weather Station
Location: Lee, MA
Elevation: 1083 ft
Nearby Weather Stations

Elev 1083 ft 42.30 °N, 73.28 °W | Updated 10 seconds ago

Overcast
Overcast
23.4 °F
Feels Like 23 °F
N
1.3
Wind Variable Wind from NW
Gusts 2.5 mph

Today
High -- | Low -- °F
--% Chance of Precip.
Yesterday
High -- | Low -- °F
Precip. -- in
Pressure 29.66 in
Visibility 10.0 miles
Clouds Overcast 9000 ft
Windchill 23 °F
Dew Point 6 °F
Humidity 46%
Rainfall 0.00 in
Snow Depth Not available.
6:55 AM 5:20 PM
Waxing Crescent, 10% visible
METAR KPSF 110654Z AUTO 30010G16KT 10SM OVC090 M06/M12 A2962 RMK AO2 SLP044 T10561122
Pressure 29.66 in
Visibility 10.0 miles
Clouds Overcast 9000 ft
Windchill 23 °F
Dew Point 6 °F
Humidity 46%
Rainfall 0.00 in
Snow Depth Not available.
6:55 AM 5:20 PM
Waxing Crescent, 10% visible
METAR KPSF 110654Z AUTO 30010G16KT 10SM OVC090 M06/M12 A2962 RMK AO2 SLP044 T10561122

10-Day Weather Forecast

Almanac

Astronomy

Feb. 11, 2016 Rise Set
Actual Time
Civil Twilight
Nautical Twilight
Astronomical Twilight
Moon
Length of Visible Light
Length of Day
Tomorrow will be .
, % of the Moon is Illuminated

Today's Extremes

State Highs State Lows

Community

WunderPhotos

Upload Photos

1,892,030 photos uploaded!

WunderBlog® & News

Nearby

Air Quality

  Air Quality AQ Index Pollutant
Not available.

Snow Depth

Station Depth Elevation

Earthquake Activity

City Distance Mag. Time & Date
Minimum magnitude displayed is 2.5.

Coastal Water Temperatures

Place Temperature

Stations

Nearby Weather Stations

Station Location Temp. Windchill Dew Point Humidity Wind Precip. Elev Updated Type
                   

Watches & Warnings

There are currently no watches in effect.